createdAt,value
2022-09-20T00:01:09.035Z,98.81
2022-09-20T00:03:38.548Z,98.75
2022-09-20T00:06:08.704Z,98.59
2022-09-20T00:08:38.659Z,98.61
2022-09-20T00:11:29.297Z,98.32
2022-09-20T00:13:58.239Z,99.08
2022-09-20T00:16:33.527Z,99.37
2022-09-20T00:19:04.051Z,100.00
2022-09-20T00:21:32.694Z,100.00
2022-09-20T00:23:59.760Z,100.00
2022-09-20T00:26:27.861Z,100.00
2022-09-20T00:28:55.284Z,100.00
2022-09-20T00:31:26.731Z,100.00
2022-09-20T00:34:16.435Z,100.00
2022-09-20T00:36:50.050Z,100.00
2022-09-20T00:39:17.177Z,100.00
2022-09-20T00:41:43.789Z,100.00
2022-09-20T00:44:45.425Z,100.00
2022-09-20T00:47:14.172Z,100.00
2022-09-20T00:49:40.926Z,100.00
2022-09-20T00:52:08.879Z,100.00
2022-09-20T00:54:37.681Z,100.00
2022-09-20T00:57:04.586Z,100.00
2022-09-20T00:59:38.946Z,100.00
2022-09-20T01:02:20.123Z,100.00
2022-09-20T01:04:54.351Z,100.00
2022-09-20T01:07:22.716Z,100.00
2022-09-20T01:09:49.957Z,100.00
2022-09-20T01:12:20.744Z,100.00
2022-09-20T01:14:51.048Z,99.86
2022-09-20T01:17:19.622Z,100.00
2022-09-20T01:20:03.785Z,100.00
2022-09-20T01:22:43.941Z,100.00
2022-09-20T01:25:18.393Z,100.00
2022-09-20T01:27:51.618Z,100.00
2022-09-20T01:30:22.097Z,100.00
2022-09-20T01:33:00.512Z,100.00
2022-09-20T01:35:36.933Z,100.00
2022-09-20T01:38:09.594Z,100.00
2022-09-20T01:40:47.929Z,100.00
2022-09-20T01:43:36.010Z,100.00
2022-09-20T01:46:17.167Z,100.00
2022-09-20T01:48:43.766Z,100.00
2022-09-20T01:51:26.304Z,100.00
2022-09-20T01:54:20.313Z,100.00
2022-09-20T01:56:55.754Z,100.00
2022-09-20T01:59:50.817Z,100.00
2022-09-20T02:02:54.696Z,100.00
2022-09-20T02:05:33.205Z,100.00
2022-09-20T02:08:21.042Z,100.00
2022-09-20T02:11:05.069Z,100.00
2022-09-20T02:13:39.474Z,100.00
2022-09-20T02:16:16.750Z,100.00
2022-09-20T02:18:45.500Z,100.00
2022-09-20T02:21:30.367Z,100.00
2022-09-20T02:24:30.473Z,100.00
2022-09-20T02:27:30.834Z,100.00
2022-09-20T02:30:30.279Z,100.00
2022-09-20T02:33:21.461Z,100.00
2022-09-20T02:36:09.452Z,100.00
2022-09-20T02:39:08.414Z,100.00
2022-09-20T02:41:48.991Z,100.00
2022-09-20T02:44:45.955Z,100.00
2022-09-20T02:47:23.777Z,100.00
2022-09-20T02:50:13.413Z,100.00
2022-09-20T02:52:58.396Z,100.00
2022-09-20T02:55:25.342Z,100.00
2022-09-20T02:58:15.284Z,100.00
2022-09-20T03:00:56.674Z,100.00
2022-09-20T03:03:37.935Z,100.00
2022-09-20T03:06:12.567Z,100.00
2022-09-20T03:08:45.587Z,100.00
2022-09-20T03:11:24.402Z,100.00
2022-09-20T03:14:08.170Z,100.00
2022-09-20T03:17:11.970Z,100.00
2022-09-20T03:19:58.686Z,100.00
2022-09-20T03:22:43.168Z,100.00
2022-09-20T03:25:34.746Z,100.00
2022-09-20T03:28:24.611Z,100.00
2022-09-20T03:31:30.488Z,100.00
2022-09-20T03:34:14.442Z,100.00
2022-09-20T03:37:06.743Z,100.00
2022-09-20T03:40:07.133Z,100.00
2022-09-20T03:42:38.311Z,100.00
2022-09-20T03:45:43.918Z,100.00
2022-09-20T03:48:44.202Z,100.00
2022-09-20T03:51:33.833Z,100.00
2022-09-20T03:54:41.375Z,100.00
2022-09-20T03:57:22.769Z,100.00
2022-09-20T04:00:11.540Z,100.00
2022-09-20T04:03:01.958Z,100.00
2022-09-20T04:05:37.637Z,100.00
2022-09-20T04:08:27.656Z,100.00
2022-09-20T04:11:11.499Z,100.00
2022-09-20T04:13:47.824Z,100.00
2022-09-20T04:16:38.083Z,100.00
2022-09-20T04:19:15.119Z,100.00
2022-09-20T04:21:50.185Z,100.00
2022-09-20T04:24:28.877Z,100.00
2022-09-20T04:27:23.167Z,100.00
2022-09-20T04:29:58.155Z,100.00
2022-09-20T04:33:05.167Z,100.00
2022-09-20T04:36:24.013Z,100.00
2022-09-20T04:39:03.610Z,100.00
2022-09-20T04:41:40.579Z,100.00
2022-09-20T04:44:26.177Z,100.00
2022-09-20T04:47:08.247Z,100.00
2022-09-20T04:50:32.330Z,100.00
2022-09-20T04:53:09.459Z,100.00
2022-09-20T04:55:52.624Z,100.00
2022-09-20T04:58:36.363Z,100.00
2022-09-20T05:01:40.222Z,100.00
2022-09-20T05:04:34.419Z,100.00
2022-09-20T05:07:19.619Z,100.00
2022-09-20T05:10:28.954Z,100.00
2022-09-20T05:13:09.387Z,100.00
2022-09-20T05:16:01.788Z,100.00
2022-09-20T05:18:51.315Z,100.00
2022-09-20T05:21:38.540Z,100.00
2022-09-20T05:24:26.358Z,100.00
2022-09-20T05:27:19.624Z,100.00
2022-09-20T05:30:11.530Z,100.00
2022-09-20T05:32:48.610Z,100.00
2022-09-20T05:35:41.306Z,100.00
2022-09-20T05:38:16.720Z,100.00
2022-09-20T05:41:06.374Z,100.00
2022-09-20T05:43:38.289Z,100.00
2022-09-20T05:46:24.370Z,100.00
2022-09-20T05:49:13.119Z,100.00
2022-09-20T05:52:28.520Z,100.00
2022-09-20T05:55:44.785Z,100.00
2022-09-20T05:58:25.504Z,98.17
2022-09-20T06:01:00.547Z,94.27
2022-09-20T06:03:40.791Z,90.12
2022-09-20T06:06:07.403Z,84.14
2022-09-20T06:08:40.699Z,78.76
2022-09-20T06:11:46.525Z,76.38
2022-09-20T06:14:28.243Z,73.40
2022-09-20T06:17:19.220Z,69.04
2022-09-20T06:20:15.946Z,66.26
2022-09-20T06:22:49.114Z,64.80
2022-09-20T06:25:23.216Z,65.54
2022-09-20T06:28:02.001Z,63.68
2022-09-20T06:30:36.794Z,60.88
2022-09-20T06:33:08.317Z,61.02
2022-09-20T06:35:44.306Z,59.03
2022-09-20T06:38:50.838Z,59.52
2022-09-20T06:41:29.882Z,58.66
2022-09-20T06:44:01.569Z,59.02
2022-09-20T06:46:30.395Z,58.04
2022-09-20T06:48:57.888Z,57.67
2022-09-20T06:51:28.495Z,56.13
2022-09-20T06:53:57.384Z,55.83
2022-09-20T06:56:27.803Z,55.98
2022-09-20T06:59:02.653Z,56.77
2022-09-20T07:01:30.598Z,55.21
2022-09-20T07:03:58.667Z,54.09
2022-09-20T07:06:27.278Z,53.57
2022-09-20T07:08:53.869Z,52.31
2022-09-20T07:11:23.312Z,54.41
2022-09-20T07:13:52.319Z,53.08
2022-09-20T07:16:18.897Z,52.08
2022-09-20T07:18:46.249Z,51.80
2022-09-20T07:21:15.174Z,52.76
2022-09-20T07:23:42.336Z,52.23
2022-09-20T07:26:30.395Z,50.53
2022-09-20T07:28:59.873Z,50.93
2022-09-20T07:31:28.609Z,50.39
2022-09-20T07:33:55.702Z,49.63
2022-09-20T07:36:22.502Z,50.13
2022-09-20T07:38:50.467Z,49.34
2022-09-20T07:41:24.159Z,49.13
2022-09-20T07:43:53.484Z,49.47
2022-09-20T07:46:23.425Z,49.18
2022-09-20T07:48:52.321Z,49.92
2022-09-20T07:51:18.856Z,50.24
2022-09-20T07:53:47.395Z,49.85
2022-09-20T07:56:17.472Z,48.29
2022-09-20T07:58:48.755Z,47.93
2022-09-20T08:01:20.004Z,47.12
2022-09-20T08:03:46.515Z,45.81
2022-09-20T08:06:18.445Z,46.07
2022-09-20T08:08:45.609Z,45.70
2022-09-20T08:11:17.752Z,45.44
2022-09-20T08:14:09.143Z,43.73
2022-09-20T08:16:47.366Z,42.76
2022-09-20T08:19:22.656Z,44.53
2022-09-20T08:21:51.035Z,45.39
2022-09-20T08:24:19.958Z,45.27
2022-09-20T08:26:47.212Z,45.17
2022-09-20T08:29:15.322Z,45.21
2022-09-20T08:31:42.592Z,45.66
2022-09-20T08:34:12.219Z,45.12
2022-09-20T08:36:42.418Z,43.87
2022-09-20T08:42:25.767Z,41.24
2022-09-20T08:44:59.549Z,38.55
2022-09-20T08:47:29.835Z,43.16
2022-09-20T08:49:57.875Z,41.89
2022-09-20T08:52:36.806Z,40.17
2022-09-20T08:55:17.050Z,44.31
2022-09-20T08:57:50.372Z,42.99
2022-09-20T09:00:34.052Z,41.01
2022-09-20T09:03:15.093Z,41.30
2022-09-20T09:05:46.419Z,42.04
2022-09-20T09:08:19.519Z,40.71
2022-09-20T09:10:52.563Z,42.15
2022-09-20T09:13:26.622Z,41.95
2022-09-20T09:15:57.761Z,41.67
2022-09-20T09:18:39.533Z,39.93
2022-09-20T09:21:16.817Z,41.56
2022-09-20T09:24:03.470Z,40.25
2022-09-20T09:26:38.111Z,40.95
2022-09-20T09:29:13.406Z,41.39
2022-09-20T09:31:40.086Z,40.94
2022-09-20T09:34:25.859Z,38.63
2022-09-20T09:36:54.409Z,42.18
2022-09-20T09:39:31.887Z,40.79
2022-09-20T09:42:02.710Z,41.66
2022-09-20T09:44:39.829Z,39.87
2022-09-20T09:47:25.445Z,37.87
2022-09-20T09:50:02.659Z,38.06
2022-09-20T09:52:34.027Z,41.86
2022-09-20T09:55:05.359Z,42.24
2022-09-20T09:57:43.978Z,39.92
2022-09-20T10:00:21.201Z,39.62
2022-09-20T10:03:09.084Z,37.68
2022-09-20T10:05:46.366Z,39.21
2022-09-20T10:08:37.381Z,37.67
2022-09-20T10:11:34.948Z,35.89
2022-09-20T10:14:17.157Z,37.76
2022-09-20T10:16:58.889Z,37.63
2022-09-20T10:19:28.135Z,38.74
2022-09-20T10:22:08.401Z,37.82
2022-09-20T10:24:51.320Z,38.36
2022-09-20T10:27:44.816Z,36.02
2022-09-20T10:30:42.145Z,34.26
2022-09-20T10:33:30.372Z,32.99
2022-09-20T10:36:10.555Z,37.23
2022-09-20T10:38:42.677Z,36.06
2022-09-20T10:41:46.625Z,34.61
2022-09-20T10:44:28.232Z,36.98
2022-09-20T10:47:09.422Z,35.55
2022-09-20T10:49:50.955Z,35.90
2022-09-20T10:52:24.623Z,31.91
2022-09-20T10:55:03.868Z,36.50
2022-09-20T10:57:48.396Z,34.66
2022-09-20T11:00:37.307Z,35.50
2022-09-20T11:03:06.719Z,37.82
2022-09-20T11:06:04.268Z,32.52
2022-09-20T11:08:35.590Z,35.97
2022-09-20T11:11:12.672Z,37.13
2022-09-20T11:14:23.116Z,35.56
2022-09-20T11:17:11.220Z,34.13
2022-09-20T11:19:56.526Z,33.76
2022-09-20T11:22:39.423Z,35.54
2022-09-20T11:25:29.955Z,34.61
2022-09-20T11:28:17.461Z,36.04
2022-09-20T11:30:56.860Z,34.09
2022-09-20T11:33:29.371Z,34.47
2022-09-20T11:36:00.585Z,34.26
2022-09-20T11:38:53.190Z,32.38
2022-09-20T11:41:31.060Z,34.65
2022-09-20T11:44:06.487Z,31.36
2022-09-20T11:46:43.489Z,36.93
2022-09-20T11:49:45.544Z,36.69
2022-09-20T11:52:33.866Z,37.15
2022-09-20T11:55:20.754Z,34.10
2022-09-20T11:58:00.657Z,34.22
2022-09-20T12:00:35.438Z,35.31
2022-09-20T12:03:06.346Z,36.50
2022-09-20T12:05:41.574Z,32.71
2022-09-20T12:08:24.751Z,34.05
2022-09-20T12:11:06.631Z,36.56
2022-09-20T12:13:39.540Z,37.23
2022-09-20T12:16:13.362Z,39.89
2022-09-20T12:18:55.233Z,40.06
2022-09-20T12:21:22.910Z,41.68
2022-09-20T12:24:17.049Z,42.12
2022-09-20T12:26:46.769Z,41.64
2022-09-20T12:29:25.215Z,42.97
2022-09-20T12:32:18.673Z,43.40
2022-09-20T12:34:49.066Z,44.04
2022-09-20T12:37:24.776Z,43.88
2022-09-20T12:39:52.626Z,42.87
2022-09-20T12:42:23.058Z,41.55
2022-09-20T12:44:49.496Z,41.82
2022-09-20T12:47:29.267Z,40.84
2022-09-20T12:50:21.749Z,40.78
2022-09-20T12:52:58.232Z,42.72
2022-09-20T12:55:28.136Z,42.85
2022-09-20T12:58:01.423Z,42.79
2022-09-20T13:00:38.313Z,43.71
2022-09-20T13:03:19.080Z,43.99
2022-09-20T13:05:47.606Z,45.11
2022-09-20T13:08:27.243Z,43.43
2022-09-20T13:11:01.259Z,42.16
2022-09-20T13:13:37.218Z,41.83
2022-09-20T13:16:08.145Z,42.95
2022-09-20T13:18:36.363Z,42.20
2022-09-20T13:21:07.183Z,41.30
2022-09-20T13:23:47.067Z,39.86
2022-09-20T13:26:15.664Z,39.13
2022-09-20T13:28:52.750Z,40.39
2022-09-20T13:34:13.512Z,37.74
2022-09-20T13:36:40.379Z,39.67
2022-09-20T13:39:08.145Z,39.07
2022-09-20T13:41:37.449Z,38.21
2022-09-20T13:44:04.133Z,38.52
2022-09-20T13:46:33.104Z,39.32
2022-09-20T13:49:17.405Z,38.67
2022-09-20T13:51:43.927Z,39.06
2022-09-20T13:54:26.347Z,37.95
2022-09-20T13:56:56.110Z,38.21
2022-09-20T13:59:31.469Z,38.94
2022-09-20T14:01:58.974Z,40.29
2022-09-20T14:04:28.230Z,40.68
2022-09-20T14:06:57.691Z,40.36
2022-09-20T14:09:34.017Z,38.47
2022-09-20T14:12:03.341Z,39.08
2022-09-20T14:14:31.745Z,38.49
2022-09-20T14:17:01.516Z,37.96
2022-09-20T14:19:37.428Z,35.10
2022-09-20T14:22:05.334Z,37.45
2022-09-20T14:24:41.738Z,38.26
2022-09-20T14:27:17.998Z,36.45
2022-09-20T14:29:52.291Z,38.33
2022-09-20T14:32:18.687Z,37.88
2022-09-20T14:35:01.944Z,36.51
2022-09-20T14:37:50.688Z,34.99
2022-09-20T14:40:30.491Z,37.48
2022-09-20T14:43:00.115Z,36.33
2022-09-20T14:45:31.211Z,37.50
2022-09-20T14:48:11.713Z,37.06
2022-09-20T14:50:47.301Z,36.59
2022-09-20T14:53:28.593Z,38.07
2022-09-20T14:56:04.112Z,38.44
2022-09-20T14:58:33.440Z,39.48
2022-09-20T15:01:23.008Z,39.61
2022-09-20T15:03:51.815Z,39.98
2022-09-20T15:06:22.664Z,39.87
2022-09-20T15:08:53.088Z,40.16
2022-09-20T15:11:20.633Z,40.23
2022-09-20T15:13:47.124Z,40.00
2022-09-20T15:16:17.555Z,39.23
2022-09-20T15:18:49.208Z,39.07
2022-09-20T15:21:15.668Z,38.33
2022-09-20T15:23:42.250Z,38.98
2022-09-20T15:26:12.574Z,39.06
2022-09-20T15:28:42.976Z,38.58
2022-09-20T15:31:10.893Z,39.41
2022-09-20T15:33:42.501Z,39.08
2022-09-20T15:36:10.766Z,37.91
2022-09-20T15:38:39.019Z,38.26
2022-09-20T15:41:06.185Z,38.18
2022-09-20T15:43:33.788Z,38.26
2022-09-20T15:46:17.527Z,38.85
2022-09-20T15:48:44.040Z,39.91
2022-09-20T15:51:13.295Z,40.75
2022-09-20T15:53:53.772Z,40.94
2022-09-20T15:56:23.399Z,41.47
2022-09-20T15:59:01.067Z,41.71
2022-09-20T16:01:30.183Z,42.11
2022-09-20T16:03:59.412Z,42.13
2022-09-20T16:06:26.442Z,42.27
2022-09-20T16:08:53.244Z,42.57
2022-09-20T16:11:22.844Z,42.80
2022-09-20T16:13:56.325Z,43.05
2022-09-20T16:16:24.331Z,43.15
2022-09-20T16:19:09.584Z,43.28
2022-09-20T16:21:39.450Z,43.56
2022-09-20T16:24:06.674Z,43.04
2022-09-20T16:26:34.680Z,43.41
2022-09-20T16:29:11.654Z,43.44
2022-09-20T16:31:47.919Z,43.80
2022-09-20T16:34:21.461Z,43.65
2022-09-20T16:36:56.948Z,43.80
2022-09-20T16:39:31.123Z,44.25
2022-09-20T16:42:06.543Z,44.46
2022-09-20T16:44:37.921Z,44.59
2022-09-20T16:47:08.965Z,44.70
2022-09-20T16:49:38.092Z,44.70
2022-09-20T16:52:07.842Z,44.78
2022-09-20T16:54:34.746Z,45.78
2022-09-20T16:57:01.923Z,46.02
2022-09-20T16:59:30.735Z,46.64
2022-09-20T17:01:57.512Z,46.66
2022-09-20T17:04:24.055Z,47.06
2022-09-20T17:06:51.598Z,47.41
2022-09-20T17:09:24.699Z,48.43
2022-09-20T17:11:52.044Z,48.85
2022-09-20T17:14:20.874Z,49.00
2022-09-20T17:16:50.115Z,48.19
2022-09-20T17:19:19.128Z,47.74
2022-09-20T17:21:50.217Z,47.70
2022-09-20T17:27:13.384Z,48.51
2022-09-20T17:29:40.135Z,49.47
2022-09-20T17:32:06.654Z,50.26
2022-09-20T17:34:33.490Z,50.71
2022-09-20T17:37:01.669Z,51.07
2022-09-20T17:39:29.775Z,51.98
2022-09-20T17:41:56.464Z,52.14
2022-09-20T17:44:24.099Z,52.90
2022-09-20T17:46:51.476Z,52.90
2022-09-20T17:49:23.177Z,52.96
2022-09-20T17:51:53.354Z,53.47
2022-09-20T17:54:20.956Z,53.68
2022-09-20T17:56:59.240Z,54.50
2022-09-20T17:59:27.792Z,54.63
2022-09-20T18:01:54.682Z,55.24
2022-09-20T18:04:24.557Z,55.52
2022-09-20T18:06:53.056Z,55.64
2022-09-20T18:09:30.381Z,56.80
2022-09-20T18:11:58.123Z,57.74
2022-09-20T18:14:27.638Z,59.15
2022-09-20T18:17:01.630Z,59.68
2022-09-20T18:19:37.310Z,60.59
2022-09-20T18:22:04.230Z,61.58
2022-09-20T18:24:31.124Z,60.59
2022-09-20T18:26:57.625Z,61.45
2022-09-20T18:29:24.856Z,61.56
2022-09-20T18:31:58.159Z,61.20
2022-09-20T18:34:32.227Z,59.01
2022-09-20T18:37:00.311Z,60.51
2022-09-20T18:39:42.551Z,60.99
2022-09-20T18:42:11.661Z,60.58
2022-09-20T18:44:38.314Z,62.71
2022-09-20T18:47:05.754Z,62.95
2022-09-20T18:49:33.378Z,63.43
2022-09-20T18:52:00.117Z,63.25
2022-09-20T18:54:30.381Z,62.65
2022-09-20T18:56:57.251Z,63.45
2022-09-20T18:59:26.590Z,61.93
2022-09-20T19:02:21.188Z,63.16
2022-09-20T19:05:05.659Z,63.35
2022-09-20T19:07:36.224Z,62.82
2022-09-20T19:10:05.778Z,62.59
2022-09-20T19:12:54.761Z,63.53
2022-09-20T19:15:55.123Z,62.96
2022-09-20T19:18:49.656Z,62.75
2022-09-20T19:21:27.609Z,63.00
2022-09-20T19:24:12.606Z,63.28
2022-09-20T19:26:44.191Z,62.50
2022-09-20T19:29:31.992Z,62.40
2022-09-20T19:32:00.927Z,61.78
2022-09-20T19:34:32.160Z,62.82
2022-09-20T19:37:14.438Z,62.59
2022-09-20T19:40:11.431Z,62.63
2022-09-20T19:43:00.337Z,62.94
2022-09-20T19:45:55.581Z,62.37
2022-09-20T19:48:37.084Z,62.21
2022-09-20T19:51:08.906Z,61.54
2022-09-20T19:53:36.311Z,61.60
2022-09-20T19:56:22.396Z,61.73
2022-09-20T19:58:53.032Z,61.78
2022-09-20T20:01:24.262Z,62.03
2022-09-20T20:03:53.955Z,61.77
2022-09-20T20:06:26.902Z,61.35
2022-09-20T20:08:57.609Z,61.39
2022-09-20T20:12:02.303Z,63.83
2022-09-20T20:14:52.335Z,66.21
2022-09-20T20:17:27.995Z,66.42
2022-09-20T20:20:10.777Z,68.37
2022-09-20T20:23:16.310Z,67.86
2022-09-20T20:26:17.350Z,68.08
2022-09-20T20:28:44.488Z,67.05
2022-09-20T20:31:12.552Z,65.69
2022-09-20T20:33:43.405Z,66.17
2022-09-20T20:36:11.979Z,68.19
2022-09-20T20:38:43.684Z,67.08
2022-09-20T20:41:11.976Z,68.95
2022-09-20T20:43:43.363Z,69.41
2022-09-20T20:46:14.212Z,70.79
2022-09-20T20:48:41.314Z,68.42
2022-09-20T20:51:16.426Z,69.49
2022-09-20T20:53:47.115Z,70.71
2022-09-20T20:56:19.501Z,70.95
2022-09-20T20:58:49.099Z,71.16
2022-09-20T21:01:19.647Z,71.55
2022-09-20T21:03:55.233Z,72.28
2022-09-20T21:06:24.764Z,72.50
2022-09-20T21:08:51.616Z,73.02
2022-09-20T21:11:25.420Z,73.80
2022-09-20T21:13:55.168Z,74.60
2022-09-20T21:16:24.350Z,75.31
2022-09-20T21:18:53.142Z,75.22
2022-09-20T21:21:24.867Z,75.72
2022-09-20T21:23:58.582Z,75.55
2022-09-20T21:26:26.971Z,75.86
2022-09-20T21:28:57.442Z,75.68
2022-09-20T21:31:26.355Z,75.57
2022-09-20T21:33:53.397Z,74.93
2022-09-20T21:36:22.271Z,74.36
2022-09-20T21:38:51.057Z,74.56
2022-09-20T21:41:26.116Z,73.42
2022-09-20T21:43:57.114Z,72.89
2022-09-20T21:46:34.527Z,72.75
2022-09-20T21:49:08.027Z,73.19
2022-09-20T21:51:37.230Z,74.75
2022-09-20T21:54:04.883Z,78.52
2022-09-20T21:56:33.926Z,78.36
2022-09-20T21:59:04.331Z,79.06
2022-09-20T22:01:34.739Z,78.96
2022-09-20T22:04:09.606Z,78.23
2022-09-20T22:06:39.101Z,77.40
2022-09-20T22:09:08.593Z,77.18
2022-09-20T22:11:39.091Z,77.48
2022-09-20T22:14:13.008Z,77.41
2022-09-20T22:16:41.685Z,77.61
2022-09-20T22:19:10.777Z,77.44
2022-09-20T22:21:41.746Z,77.50
2022-09-20T22:24:10.610Z,78.57
2022-09-20T22:26:49.370Z,79.47
2022-09-20T22:29:17.033Z,79.49
2022-09-20T22:31:46.088Z,79.79
2022-09-20T22:34:22.578Z,79.70
2022-09-20T22:36:49.658Z,80.55
2022-09-20T22:39:19.763Z,80.47
2022-09-20T22:41:49.680Z,80.04
2022-09-20T22:44:18.665Z,80.55
2022-09-20T22:46:45.176Z,80.42
2022-09-20T22:49:13.465Z,80.79
2022-09-20T22:51:40.493Z,81.16
2022-09-20T22:54:10.380Z,81.18
2022-09-20T22:56:39.733Z,81.93
2022-09-20T22:59:08.418Z,82.12
2022-09-20T23:01:37.042Z,82.16
2022-09-20T23:04:09.530Z,82.23
2022-09-20T23:06:48.006Z,82.59
2022-09-20T23:09:18.185Z,83.11
2022-09-20T23:11:45.628Z,83.10
2022-09-20T23:14:14.473Z,83.08
2022-09-20T23:16:41.926Z,83.10
2022-09-20T23:19:09.705Z,82.88
2022-09-20T23:21:38.345Z,84.06
2022-09-20T23:24:11.616Z,83.74
2022-09-20T23:26:39.632Z,84.56
2022-09-20T23:29:09.226Z,85.28
2022-09-20T23:31:46.623Z,86.44
2022-09-20T23:34:14.366Z,85.99
2022-09-20T23:36:43.263Z,86.45
2022-09-20T23:39:13.618Z,86.43
2022-09-20T23:41:41.361Z,85.91
2022-09-20T23:44:09.910Z,85.51
2022-09-20T23:46:43.614Z,86.90
2022-09-20T23:49:10.143Z,87.39
2022-09-20T23:51:37.388Z,89.37
2022-09-20T23:54:06.221Z,89.22
2022-09-20T23:56:33.718Z,90.12
2022-09-20T23:59:00.666Z,91.60
